createdAt,value
2018-09-02T12:36:44.768Z,30
2018-09-02T12:41:47.256Z,32
2018-09-02T12:46:49.675Z,33
2018-09-02T12:51:52.221Z,33
2018-09-02T12:56:54.608Z,31
2018-09-02T13:01:57.057Z,39
2018-09-02T13:07:00.385Z,37
2018-09-02T13:17:04.415Z,33
2018-09-02T13:22:06.950Z,40
2018-09-02T13:27:09.431Z,42
2018-09-02T13:32:12.007Z,40
2018-09-02T13:37:14.338Z,39
2018-09-02T13:42:16.711Z,34
2018-09-02T13:47:19.321Z,33
2018-09-02T13:52:21.642Z,33
2018-09-02T13:57:24.125Z,37
2018-09-02T14:02:26.585Z,32
2018-09-02T14:07:29.010Z,35
2018-09-02T14:12:31.453Z,34
2018-09-02T14:17:33.922Z,32
2018-09-02T14:22:36.370Z,33
2018-09-02T14:27:38.848Z,41
2018-09-02T14:32:41.285Z,40
2018-09-02T14:37:43.755Z,43
2018-09-02T14:42:46.237Z,41
2018-09-02T14:47:48.668Z,40
2018-09-02T14:52:51.348Z,44
2018-09-02T14:57:53.660Z,43
2018-09-02T15:02:56.055Z,49
2018-09-02T15:07:58.519Z,49
2018-09-02T15:13:01.482Z,48
2018-09-02T15:18:03.428Z,62
2018-09-02T15:23:05.876Z,53
2018-09-02T15:28:08.360Z,52
2018-09-02T15:33:10.779Z,61
2018-09-02T15:38:13.348Z,51
2018-09-02T15:43:15.701Z,51
2018-09-02T15:53:20.628Z,53
2018-09-02T15:58:23.103Z,50
2018-09-02T16:03:25.818Z,53
2018-09-02T16:08:28.526Z,65
2018-09-02T16:13:31.584Z,78
2018-09-02T16:18:32.908Z,77
2018-09-02T16:23:35.363Z,78
2018-09-02T16:28:37.852Z,66
2018-09-02T16:33:40.275Z,57
2018-09-02T16:38:42.736Z,56
2018-09-02T16:43:45.223Z,63
2018-09-02T16:48:47.953Z,68
2018-09-02T16:53:50.212Z,76
2018-09-02T16:58:52.626Z,70
2018-09-02T17:03:55.078Z,67
2018-09-02T17:08:57.516Z,61
2018-09-02T17:14:00.037Z,67
2018-09-02T17:19:02.430Z,81
2018-09-02T17:24:04.885Z,82
2018-09-02T17:29:07.492Z,74
2018-09-02T17:34:09.791Z,77
2018-09-02T17:39:12.282Z,94
2018-09-02T17:44:14.784Z,80
2018-09-02T17:49:17.209Z,81
2018-09-02T17:54:19.646Z,76
2018-09-02T17:59:22.116Z,64
2018-09-02T18:04:24.532Z,66
2018-09-02T18:09:26.994Z,84
2018-09-02T18:14:29.935Z,79
2018-09-02T18:19:31.906Z,69
2018-09-02T18:24:34.362Z,71
2018-09-02T18:29:36.845Z,68
2018-09-02T18:34:39.316Z,69
2018-09-02T18:39:41.874Z,66
2018-09-02T18:44:44.278Z,65
2018-09-02T18:49:46.815Z,62
2018-09-02T18:54:49.581Z,72
2018-09-02T18:59:51.568Z,71
2018-09-02T19:04:54.144Z,65
2018-09-02T19:09:56.574Z,60
2018-09-02T19:14:59.084Z,51
2018-09-02T19:20:01.747Z,56
2018-09-02T19:25:03.875Z,63
2018-09-02T19:30:07.253Z,58
2018-09-02T19:35:08.784Z,63
2018-09-02T19:40:11.261Z,64
2018-09-02T19:45:13.709Z,57
2018-09-02T19:50:16.160Z,57
2018-09-02T19:55:18.623Z,67
2018-09-02T20:00:21.173Z,59
2018-09-02T20:05:23.548Z,57
2018-09-02T20:10:25.991Z,60
2018-09-02T20:15:28.450Z,72
2018-09-02T20:20:31.289Z,71
2018-09-02T20:25:33.367Z,86
2018-09-02T20:30:35.815Z,74
2018-09-02T20:35:38.296Z,68
2018-09-02T20:40:40.751Z,72
2018-09-02T20:45:43.192Z,77
2018-09-02T20:50:45.659Z,89
2018-09-02T20:55:48.115Z,90
2018-09-02T21:00:50.578Z,87
2018-09-02T21:05:53.195Z,89
2018-09-02T21:10:55.486Z,94
2018-09-02T21:15:58.337Z,91
2018-09-02T21:21:00.573Z,105
2018-09-02T21:26:02.935Z,95
2018-09-02T21:31:05.551Z,107
2018-09-02T21:36:07.814Z,91
2018-09-02T21:41:10.233Z,97
2018-09-02T21:46:12.698Z,88
2018-09-02T21:51:15.209Z,91
2018-09-02T21:56:17.610Z,91
2018-09-02T22:01:20.331Z,79
2018-09-02T22:06:22.803Z,83
2018-09-02T22:11:25.302Z,83
2018-09-02T22:16:27.563Z,78
2018-09-02T22:21:29.887Z,80
2018-09-02T22:26:32.355Z,86
2018-09-02T22:31:34.810Z,86
2018-09-02T22:36:37.288Z,89
2018-09-02T22:41:39.959Z,94
2018-09-02T22:46:42.183Z,95
2018-09-02T22:51:44.639Z,85
2018-09-02T22:56:47.116Z,98
2018-09-02T23:01:49.689Z,100
2018-09-02T23:06:52.449Z,97
2018-09-02T23:11:54.493Z,100
2018-09-02T23:16:57.120Z,139
2018-09-02T23:21:59.580Z,130
2018-09-02T23:27:02.020Z,134
2018-09-02T23:32:04.612Z,125
2018-09-02T23:37:06.779Z,139
2018-09-02T23:42:09.707Z,156
2018-09-02T23:47:11.701Z,184
2018-09-02T23:52:14.360Z,210
2018-09-02T23:57:17.114Z,215
